createdAt,value
2018-05-24T00:00:14.754Z,46.48
2018-05-24T00:02:42.169Z,46.51
2018-05-24T00:05:09.586Z,46.51
2018-05-24T00:07:37.004Z,46.51
2018-05-24T00:10:04.424Z,46.52
2018-05-24T00:12:31.850Z,46.55
2018-05-24T00:14:59.261Z,46.54
2018-05-24T00:17:26.679Z,46.52
2018-05-24T00:19:54.108Z,46.66
2018-05-24T00:22:21.568Z,46.74
2018-05-24T00:24:49.315Z,46.70
2018-05-24T00:27:16.736Z,46.70
2018-05-24T00:29:44.144Z,46.57
2018-05-24T00:32:11.984Z,46.65
2018-05-24T00:34:39.411Z,46.61
2018-05-24T00:37:06.823Z,46.71
2018-05-24T00:39:34.263Z,46.98
2018-05-24T00:42:01.657Z,46.79
2018-05-24T00:44:29.067Z,46.79
2018-05-24T00:46:56.505Z,46.65
2018-05-24T00:49:23.907Z,46.60
2018-05-24T00:51:51.328Z,46.57
2018-05-24T00:54:18.794Z,46.47
2018-05-24T00:56:46.233Z,46.63
2018-05-24T00:59:13.656Z,46.55
2018-05-24T01:01:41.094Z,46.98
2018-05-24T01:04:08.589Z,46.84
2018-05-24T01:06:35.946Z,47.14
2018-05-24T01:09:03.354Z,47.26
2018-05-24T01:11:30.767Z,46.89
2018-05-24T01:13:58.187Z,46.92
2018-05-24T01:16:25.607Z,46.93
2018-05-24T01:18:53.027Z,46.85
2018-05-24T01:21:20.452Z,47.23
2018-05-24T01:23:47.913Z,47.19
2018-05-24T01:26:15.324Z,47.33
2018-05-24T01:28:42.744Z,47.18
2018-05-24T01:31:10.157Z,47.52
2018-05-24T01:33:37.573Z,47.42
2018-05-24T01:36:04.976Z,47.18
2018-05-24T01:38:32.394Z,47.21
2018-05-24T01:40:59.841Z,47.37
2018-05-24T01:43:27.295Z,47.58
2018-05-24T01:45:54.728Z,47.46
2018-05-24T01:48:22.147Z,48.09
2018-05-24T01:50:49.897Z,48.12
2018-05-24T01:53:17.297Z,48.23
2018-05-24T01:55:44.717Z,47.98
2018-05-24T01:58:12.156Z,47.91
2018-05-24T02:00:39.594Z,48.08
2018-05-24T02:03:06.997Z,48.25
2018-05-24T02:05:34.399Z,48.51
2018-05-24T02:08:01.831Z,48.17
2018-05-24T02:10:29.258Z,48.63
2018-05-24T02:12:56.852Z,49.18
2018-05-24T02:15:24.264Z,48.92
2018-05-24T02:17:51.694Z,48.89
2018-05-24T02:20:19.138Z,48.87
2018-05-24T02:22:46.549Z,48.78
2018-05-24T02:25:13.965Z,48.92
2018-05-24T02:27:41.388Z,49.03
2018-05-24T02:30:08.792Z,49.29
2018-05-24T02:32:36.358Z,48.96
2018-05-24T02:35:03.768Z,48.95
2018-05-24T02:37:31.176Z,49.03
2018-05-24T02:39:58.612Z,49.24
2018-05-24T02:42:26.055Z,49.37
2018-05-24T02:44:53.462Z,49.23
2018-05-24T02:47:20.905Z,49.14
2018-05-24T02:49:48.686Z,49.50
2018-05-24T02:52:16.117Z,49.53
2018-05-24T02:54:43.554Z,49.47
2018-05-24T02:57:10.983Z,49.88
2018-05-24T02:59:38.399Z,50.04
2018-05-24T03:02:05.825Z,50.12
2018-05-24T03:04:33.236Z,50.31
2018-05-24T03:07:00.637Z,50.09
2018-05-24T03:09:28.065Z,49.94
2018-05-24T03:11:55.470Z,49.93
2018-05-24T03:14:22.984Z,50.13
2018-05-24T03:16:50.294Z,50.05
2018-05-24T03:19:17.687Z,50.37
2018-05-24T03:21:45.093Z,50.07
2018-05-24T03:24:12.802Z,50.34
2018-05-24T03:26:40.205Z,50.03
2018-05-24T03:29:07.627Z,50.14
2018-05-24T03:31:35.036Z,49.92
2018-05-24T03:34:02.447Z,50.16
2018-05-24T03:36:29.856Z,50.38
2018-05-24T03:38:57.272Z,50.45
2018-05-24T03:41:24.675Z,50.16
2018-05-24T03:43:52.495Z,50.68
2018-05-24T03:46:19.906Z,50.76
2018-05-24T03:48:47.324Z,50.56
2018-05-24T03:51:14.751Z,50.44
2018-05-24T03:53:42.160Z,50.72
2018-05-24T03:56:09.643Z,50.39
2018-05-24T03:58:37.076Z,50.86
2018-05-24T04:01:17.471Z,50.99
2018-05-24T04:03:48.483Z,50.59
2018-05-24T04:06:15.888Z,51.24
2018-05-24T04:08:43.303Z,51.08
2018-05-24T04:11:10.712Z,51.47
2018-05-24T04:13:38.133Z,51.21
2018-05-24T04:16:05.540Z,51.19
2018-05-24T04:18:32.952Z,51.44
2018-05-24T04:21:00.369Z,51.95
2018-05-24T04:23:27.764Z,51.67
2018-05-24T04:25:55.397Z,51.36
2018-05-24T04:28:22.795Z,51.28
2018-05-24T04:30:50.203Z,50.88
2018-05-24T04:33:17.696Z,50.28
2018-05-24T04:35:45.108Z,49.68
2018-05-24T04:38:12.512Z,49.11
2018-05-24T04:40:39.940Z,47.80
2018-05-24T04:43:07.341Z,47.46
2018-05-24T04:45:34.812Z,46.35
2018-05-24T04:48:02.164Z,45.58
2018-05-24T04:50:29.581Z,44.88
2018-05-24T04:52:56.987Z,44.94
2018-05-24T04:55:24.384Z,43.28
2018-05-24T04:57:52.057Z,43.66
2018-05-24T05:00:19.453Z,42.86
2018-05-24T05:02:46.859Z,43.35
2018-05-24T05:05:14.275Z,42.59
2018-05-24T05:07:41.681Z,43.22
2018-05-24T05:10:09.416Z,43.17
2018-05-24T05:12:36.821Z,42.03
2018-05-24T05:15:04.225Z,43.14
2018-05-24T05:17:31.644Z,43.40
2018-05-24T05:19:59.120Z,43.13
2018-05-24T05:22:26.532Z,42.88
2018-05-24T05:24:54.258Z,41.56
2018-05-24T05:27:21.694Z,42.02
2018-05-24T05:29:49.088Z,39.63
2018-05-24T05:32:16.528Z,40.72
2018-05-24T05:34:45.362Z,40.03
2018-05-24T05:37:12.769Z,38.96
2018-05-24T05:39:40.189Z,37.06
2018-05-24T05:42:07.612Z,37.63
2018-05-24T05:44:35.020Z,37.36
2018-05-24T05:47:02.586Z,37.95
2018-05-24T05:49:29.996Z,38.04
2018-05-24T05:51:57.448Z,38.14
2018-05-24T05:54:24.864Z,37.95
2018-05-24T05:56:52.275Z,37.90
2018-05-24T05:59:19.739Z,37.31
2018-05-24T06:01:47.242Z,36.26
2018-05-24T06:04:14.604Z,35.66
2018-05-24T06:06:42.028Z,35.70
2018-05-24T06:09:09.429Z,34.77
2018-05-24T06:11:36.835Z,35.27
2018-05-24T06:14:04.256Z,34.98
2018-05-24T06:16:31.691Z,35.40
2018-05-24T06:18:59.089Z,34.82
2018-05-24T06:21:26.565Z,34.87
2018-05-24T06:23:53.979Z,35.09
2018-05-24T06:26:21.395Z,35.39
2018-05-24T06:28:48.789Z,34.14
2018-05-24T06:31:16.357Z,34.50
2018-05-24T06:33:43.763Z,34.35
2018-05-24T06:36:11.173Z,33.75
2018-05-24T06:38:38.591Z,33.44
2018-05-24T06:41:06.004Z,33.54
2018-05-24T06:43:33.425Z,33.49
2018-05-24T06:46:00.843Z,33.28
2018-05-24T06:48:28.269Z,33.01
2018-05-24T06:50:55.691Z,33.63
2018-05-24T06:53:23.258Z,33.88
2018-05-24T06:55:50.660Z,34.70
2018-05-24T06:58:18.066Z,35.36
2018-05-24T07:00:46.382Z,35.61
2018-05-24T07:03:13.797Z,36.27
2018-05-24T07:05:41.199Z,36.49
2018-05-24T07:08:08.762Z,35.55
2018-05-24T07:10:36.166Z,35.87
2018-05-24T07:13:03.561Z,36.39
2018-05-24T07:15:31.217Z,35.96
2018-05-24T07:17:58.648Z,35.91
2018-05-24T07:20:26.046Z,34.97
2018-05-24T07:22:53.464Z,35.54
2018-05-24T07:25:20.876Z,35.68
2018-05-24T07:27:48.305Z,36.93
2018-05-24T07:30:15.731Z,37.04
2018-05-24T07:32:43.129Z,36.79
2018-05-24T07:35:10.968Z,37.67
2018-05-24T07:37:38.411Z,38.03
2018-05-24T07:40:05.780Z,38.10
2018-05-24T07:42:33.367Z,38.38
2018-05-24T07:45:00.750Z,38.85
2018-05-24T07:47:28.162Z,38.76
2018-05-24T07:49:55.596Z,39.49
2018-05-24T07:52:23.031Z,40.03
2018-05-24T07:54:50.517Z,40.38
2018-05-24T07:57:17.863Z,40.78
2018-05-24T07:59:45.281Z,40.97
2018-05-24T08:02:12.696Z,42.05
2018-05-24T08:04:40.124Z,41.70
2018-05-24T08:07:07.537Z,41.77
2018-05-24T08:09:35.225Z,41.26
2018-05-24T08:12:02.636Z,40.40
2018-05-24T08:14:30.051Z,40.88
2018-05-24T08:16:57.796Z,41.12
2018-05-24T08:19:25.199Z,41.93
2018-05-24T08:21:52.615Z,42.96
2018-05-24T08:24:20.050Z,43.61
2018-05-24T08:26:47.469Z,44.03
2018-05-24T08:29:14.876Z,45.22
2018-05-24T08:31:42.284Z,46.44
2018-05-24T08:34:09.865Z,46.55
2018-05-24T08:36:37.289Z,46.99
2018-05-24T08:39:05.632Z,46.59
2018-05-24T08:41:33.361Z,46.75
2018-05-24T08:44:00.773Z,46.27
2018-05-24T08:46:28.184Z,45.70
2018-05-24T08:48:55.632Z,45.85
2018-05-24T08:51:23.464Z,45.87
2018-05-24T08:53:51.236Z,45.70
2018-05-24T08:56:18.648Z,44.51
2018-05-24T08:58:46.062Z,44.53
2018-05-24T09:01:13.540Z,44.17
2018-05-24T09:03:40.896Z,44.78
2018-05-24T09:06:08.352Z,45.00
2018-05-24T09:08:35.759Z,45.42
2018-05-24T09:11:03.329Z,45.61
2018-05-24T09:13:30.750Z,47.07
2018-05-24T09:15:58.169Z,47.02
2018-05-24T09:18:25.603Z,46.81
2018-05-24T09:20:53.000Z,47.28
2018-05-24T09:23:20.408Z,47.22
2018-05-24T09:25:47.842Z,47.21
2018-05-24T09:28:15.252Z,47.63
2018-05-24T09:30:42.669Z,47.63
2018-05-24T09:33:10.089Z,47.75
2018-05-24T09:35:37.504Z,47.49
2018-05-24T09:38:04.942Z,47.38
2018-05-24T09:40:32.541Z,47.83
2018-05-24T09:42:59.957Z,47.69
2018-05-24T09:45:27.372Z,48.52
2018-05-24T09:47:54.788Z,47.81
2018-05-24T09:50:22.196Z,48.13
2018-05-24T09:52:49.664Z,48.42
2018-05-24T09:55:17.126Z,47.25
2018-05-24T09:57:44.493Z,46.13
2018-05-24T10:00:11.960Z,45.72
2018-05-24T10:02:39.363Z,46.13
2018-05-24T10:05:06.783Z,45.68
2018-05-24T10:07:34.200Z,45.60
2018-05-24T10:10:01.648Z,45.51
2018-05-24T10:12:29.024Z,45.34
2018-05-24T10:14:56.591Z,45.79
2018-05-24T10:17:23.999Z,45.59
2018-05-24T10:19:51.403Z,45.18
2018-05-24T10:24:51.565Z,45.49
2018-05-24T10:27:19.033Z,46.91
2018-05-24T10:29:46.452Z,46.80
2018-05-24T10:32:13.889Z,46.50
2018-05-24T10:34:41.361Z,47.29
2018-05-24T10:37:08.780Z,47.43
2018-05-24T10:39:36.236Z,47.55
2018-05-24T10:42:03.677Z,47.65
2018-05-24T10:44:31.090Z,47.89
2018-05-24T10:46:58.504Z,48.35
2018-05-24T10:49:25.941Z,47.77
2018-05-24T10:51:53.398Z,48.07
2018-05-24T10:54:20.837Z,48.04
2018-05-24T10:56:48.312Z,47.78
2018-05-24T10:59:15.676Z,48.17
2018-05-24T11:01:43.256Z,48.07
2018-05-24T11:04:10.676Z,47.93
2018-05-24T11:06:38.090Z,47.96
2018-05-24T11:09:05.496Z,48.45
2018-05-24T11:11:33.456Z,48.58
2018-05-24T11:14:00.853Z,48.75
2018-05-24T11:16:28.272Z,48.97
2018-05-24T11:18:55.714Z,48.74
2018-05-24T11:21:23.147Z,49.12
2018-05-24T11:23:50.575Z,49.50
2018-05-24T11:26:17.977Z,49.81
2018-05-24T11:28:45.408Z,50.34
2018-05-24T11:31:12.841Z,50.39
2018-05-24T11:33:40.281Z,50.73
2018-05-24T11:36:07.696Z,51.06
2018-05-24T11:38:35.116Z,51.67
2018-05-24T11:41:02.529Z,51.85
2018-05-24T11:43:30.120Z,52.00
2018-05-24T11:45:57.410Z,52.74
2018-05-24T11:48:24.832Z,53.42
2018-05-24T11:50:52.307Z,54.29
2018-05-24T11:53:19.739Z,54.55
2018-05-24T11:55:47.140Z,54.79
2018-05-24T11:58:18.813Z,56.14
2018-05-24T12:00:46.273Z,56.79
2018-05-24T12:03:13.881Z,58.18
2018-05-24T12:05:41.292Z,59.42
2018-05-24T12:08:08.717Z,60.49
2018-05-24T12:10:36.148Z,60.60
2018-05-24T12:13:03.568Z,61.73
2018-05-24T12:15:30.992Z,62.93
2018-05-24T12:17:58.865Z,62.21
2018-05-24T12:20:26.285Z,62.18
2018-05-24T12:22:53.723Z,63.01
2018-05-24T12:25:21.210Z,62.73
2018-05-24T12:27:48.643Z,62.51
2018-05-24T12:30:16.091Z,62.77
2018-05-24T12:32:43.698Z,62.92
2018-05-24T12:35:11.166Z,62.77
2018-05-24T12:37:39.336Z,62.76
2018-05-24T12:40:06.776Z,63.07
2018-05-24T12:42:34.196Z,62.93
2018-05-24T12:45:01.619Z,62.76
2018-05-24T12:47:29.067Z,63.44
2018-05-24T12:49:56.529Z,64.79
2018-05-24T12:52:24.040Z,64.64
2018-05-24T12:54:51.500Z,64.78
2018-05-24T12:57:18.960Z,65.00
2018-05-24T12:59:46.427Z,65.23
2018-05-24T13:02:13.878Z,65.80
2018-05-24T13:04:41.288Z,66.00
2018-05-24T13:07:08.739Z,66.43
2018-05-24T13:09:36.159Z,67.11
2018-05-24T13:12:03.593Z,67.20
2018-05-24T13:14:31.013Z,69.25
2018-05-24T13:16:58.535Z,69.81
2018-05-24T13:19:25.980Z,70.29
2018-05-24T13:21:53.407Z,70.64
2018-05-24T13:24:21.230Z,71.79
2018-05-24T13:26:48.708Z,73.23
2018-05-24T13:29:16.129Z,74.63
2018-05-24T13:31:43.571Z,75.04
2018-05-24T13:34:10.987Z,76.09
2018-05-24T13:36:38.433Z,76.11
2018-05-24T13:39:05.887Z,76.95
2018-05-24T13:41:33.296Z,77.04
2018-05-24T13:44:00.729Z,77.23
2018-05-24T13:46:28.172Z,77.09
2018-05-24T13:48:55.904Z,77.93
2018-05-24T13:51:23.416Z,78.38
2018-05-24T13:53:50.843Z,76.69
2018-05-24T13:56:18.268Z,78.14
2018-05-24T13:58:45.699Z,77.88
2018-05-24T14:01:13.146Z,77.87
2018-05-24T14:03:40.561Z,77.26
2018-05-24T14:06:07.985Z,76.60
2018-05-24T14:08:35.588Z,76.88
2018-05-24T14:11:03.013Z,76.19
2018-05-24T14:13:30.437Z,76.39
2018-05-24T14:15:58.300Z,76.58
2018-05-24T14:18:25.729Z,75.70
2018-05-24T14:20:53.229Z,75.48
2018-05-24T14:23:20.951Z,75.61
2018-05-24T14:25:48.384Z,76.29
2018-05-24T14:28:15.814Z,76.10
2018-05-24T14:30:43.255Z,77.19
2018-05-24T14:33:10.681Z,77.12
2018-05-24T14:35:38.107Z,77.64
2018-05-24T14:38:05.523Z,77.36
2018-05-24T14:40:32.943Z,77.83
2018-05-24T14:43:00.361Z,78.77
2018-05-24T14:45:27.857Z,78.16
2018-05-24T14:47:57.055Z,78.31
2018-05-24T14:50:24.483Z,78.74
2018-05-24T14:52:51.920Z,78.92
2018-05-24T14:55:19.325Z,80.52
2018-05-24T14:57:46.748Z,80.01
2018-05-24T15:00:14.169Z,79.72
2018-05-24T15:02:41.612Z,79.75
2018-05-24T15:05:09.040Z,79.42
2018-05-24T15:07:36.470Z,79.72
2018-05-24T15:10:03.900Z,79.91
2018-05-24T15:12:31.316Z,79.88
2018-05-24T15:14:59.012Z,80.44
2018-05-24T15:17:27.252Z,80.72
2018-05-24T15:19:54.701Z,82.48
2018-05-24T15:22:22.227Z,81.78
2018-05-24T15:24:49.699Z,80.64
2018-05-24T15:27:17.375Z,80.21
2018-05-24T15:29:44.901Z,79.61
2018-05-24T15:32:12.320Z,79.48
2018-05-24T15:34:39.757Z,79.35
2018-05-24T15:37:07.188Z,78.50
2018-05-24T15:39:34.605Z,78.21
2018-05-24T15:42:02.046Z,78.39
2018-05-24T15:44:29.683Z,78.25
2018-05-24T15:46:57.126Z,77.35
2018-05-24T15:49:24.560Z,77.05
2018-05-24T15:51:52.030Z,76.40
2018-05-24T15:54:19.481Z,76.00
2018-05-24T15:56:46.929Z,75.84
2018-05-24T15:59:14.383Z,75.23
2018-05-24T16:01:42.002Z,74.54
2018-05-24T16:04:09.420Z,74.57
2018-05-24T16:06:36.844Z,74.44
2018-05-24T16:09:04.269Z,73.90
2018-05-24T16:11:31.699Z,73.76
2018-05-24T16:13:59.132Z,72.47
2018-05-24T16:16:26.548Z,71.96
2018-05-24T16:18:53.960Z,71.70
2018-05-24T16:21:21.392Z,71.72
2018-05-24T16:23:48.800Z,71.41
2018-05-24T16:26:16.254Z,70.66
2018-05-24T16:28:43.667Z,70.83
2018-05-24T16:31:11.080Z,70.23
2018-05-24T16:33:38.507Z,70.52
2018-05-24T16:36:05.922Z,70.65
2018-05-24T16:38:33.339Z,70.71
2018-05-24T16:41:00.764Z,70.58
2018-05-24T16:43:28.189Z,69.69
2018-05-24T16:45:55.619Z,68.54
2018-05-24T16:48:23.054Z,68.11
2018-05-24T16:50:50.506Z,69.19
2018-05-24T16:53:18.001Z,69.89
2018-05-24T16:55:45.502Z,70.00
2018-05-24T16:58:13.546Z,70.72
2018-05-24T17:00:41.018Z,71.19
2018-05-24T17:03:08.667Z,70.92
2018-05-24T17:05:36.121Z,70.99
2018-05-24T17:08:03.628Z,71.47
2018-05-24T17:10:31.051Z,71.45
2018-05-24T17:12:58.494Z,71.50
2018-05-24T17:15:25.940Z,71.78
2018-05-24T17:17:53.352Z,72.06
2018-05-24T17:20:20.785Z,72.55
2018-05-24T17:22:48.220Z,72.69
2018-05-24T17:25:15.635Z,72.76
2018-05-24T17:27:43.073Z,73.27
2018-05-24T17:30:10.768Z,73.07
2018-05-24T17:32:38.356Z,73.10
2018-05-24T17:35:05.819Z,73.19
2018-05-24T17:37:33.227Z,73.05
2018-05-24T17:40:00.740Z,73.00
2018-05-24T17:42:28.152Z,72.92
2018-05-24T17:44:55.891Z,73.08
2018-05-24T17:47:23.333Z,73.19
2018-05-24T17:49:50.749Z,73.13
2018-05-24T17:52:18.204Z,73.23
2018-05-24T17:54:45.627Z,73.43
2018-05-24T17:57:13.055Z,73.37
2018-05-24T17:59:40.497Z,73.46
2018-05-24T18:02:07.908Z,73.89
2018-05-24T18:04:35.776Z,74.09
2018-05-24T18:07:03.195Z,74.18
2018-05-24T18:09:30.657Z,74.25
2018-05-24T18:11:58.056Z,74.77
2018-05-24T18:14:25.513Z,74.76
2018-05-24T18:16:52.961Z,74.66
2018-05-24T18:19:20.443Z,74.67
2018-05-24T18:21:47.892Z,74.69
2018-05-24T18:24:15.336Z,74.72
2018-05-24T18:26:42.768Z,74.81
2018-05-24T18:29:10.208Z,74.75
2018-05-24T18:31:37.676Z,74.71
2018-05-24T18:34:05.149Z,74.78
2018-05-24T18:36:32.651Z,74.77
2018-05-24T18:39:00.078Z,74.61
2018-05-24T18:41:29.228Z,74.64
2018-05-24T18:43:56.690Z,74.63
2018-05-24T18:46:24.132Z,74.80
2018-05-24T18:48:51.641Z,75.26
2018-05-24T18:51:19.208Z,75.16
2018-05-24T18:53:46.617Z,75.34
2018-05-24T18:56:14.261Z,75.63
2018-05-24T18:58:42.840Z,75.70
2018-05-24T19:01:10.254Z,74.97
2018-05-24T19:03:37.683Z,75.03
2018-05-24T19:06:05.261Z,74.94
2018-05-24T19:08:32.696Z,75.14
2018-05-24T19:11:00.189Z,75.44
2018-05-24T19:13:27.678Z,75.27
2018-05-24T19:15:55.133Z,75.46
2018-05-24T19:18:22.702Z,75.78
2018-05-24T19:20:50.201Z,74.98
2018-05-24T19:23:17.585Z,75.70
2018-05-24T19:25:44.987Z,77.75
2018-05-24T19:28:12.407Z,77.14
2018-05-24T19:30:40.107Z,77.70
2018-05-24T19:33:07.967Z,77.47
2018-05-24T19:35:35.427Z,77.41
2018-05-24T19:38:03.016Z,76.84
2018-05-24T19:40:30.435Z,76.09
2018-05-24T19:42:57.874Z,76.63
2018-05-24T19:45:25.364Z,76.18
2018-05-24T19:47:52.826Z,76.53
2018-05-24T19:50:20.520Z,76.61
2018-05-24T19:52:47.924Z,77.56
2018-05-24T19:55:15.361Z,78.30
2018-05-24T19:57:42.860Z,78.40
2018-05-24T20:00:10.294Z,78.11
2018-05-24T20:02:37.734Z,77.82
2018-05-24T20:05:05.145Z,77.52
2018-05-24T20:07:32.571Z,77.62
2018-05-24T20:09:59.988Z,77.66
2018-05-24T20:12:27.460Z,77.84
2018-05-24T20:14:55.249Z,77.87
2018-05-24T20:17:22.670Z,77.32
2018-05-24T20:19:50.396Z,77.74
2018-05-24T20:22:17.808Z,77.36
2018-05-24T20:24:45.945Z,77.56
2018-05-24T20:27:13.525Z,77.34
2018-05-24T20:29:41.813Z,76.86
2018-05-24T20:32:11.053Z,76.92
2018-05-24T20:34:38.685Z,77.13
2018-05-24T20:37:10.516Z,77.54
2018-05-24T20:39:38.680Z,77.92
2018-05-24T20:42:06.702Z,78.24
2018-05-24T20:44:34.489Z,78.50
2018-05-24T20:47:02.382Z,78.88
2018-05-24T20:49:29.907Z,79.07
2018-05-24T20:51:57.372Z,79.50
2018-05-24T20:54:24.847Z,79.51
2018-05-24T20:56:52.342Z,79.90
2018-05-24T20:59:19.770Z,80.83
2018-05-24T21:01:47.232Z,80.80
2018-05-24T21:04:14.723Z,81.46
2018-05-24T21:06:42.137Z,81.67
2018-05-24T21:09:09.561Z,81.33
2018-05-24T21:11:36.997Z,81.51
2018-05-24T21:14:04.411Z,81.58
2018-05-24T21:16:31.820Z,81.70
2018-05-24T21:18:59.400Z,81.60
2018-05-24T21:21:26.815Z,81.77
2018-05-24T21:23:54.243Z,81.80
2018-05-24T21:26:21.788Z,81.57
2018-05-24T21:28:49.208Z,81.30
2018-05-24T21:31:16.623Z,81.94
2018-05-24T21:33:44.057Z,82.75
2018-05-24T21:36:11.492Z,82.26
2018-05-24T21:38:38.911Z,82.00
2018-05-24T21:41:06.320Z,81.80
2018-05-24T21:43:33.743Z,82.06
2018-05-24T21:46:01.173Z,81.81
2018-05-24T21:48:28.635Z,81.41
2018-05-24T21:50:56.210Z,81.59
2018-05-24T21:53:23.636Z,82.17
2018-05-24T21:55:51.077Z,82.00
2018-05-24T21:58:18.518Z,81.84
2018-05-24T22:00:50.864Z,81.93
2018-05-24T22:03:18.561Z,81.97
2018-05-24T22:05:45.976Z,82.17
2018-05-24T22:08:14.356Z,82.29
2018-05-24T22:10:42.270Z,82.35
2018-05-24T22:13:09.970Z,82.85
2018-05-24T22:15:37.767Z,82.89
2018-05-24T22:18:05.759Z,82.46
2018-05-24T22:20:34.038Z,82.99
2018-05-24T22:23:01.675Z,82.70
2018-05-24T22:25:29.362Z,82.55
2018-05-24T22:27:57.030Z,82.64
2018-05-24T22:30:26.151Z,82.57
2018-05-24T22:32:53.855Z,82.64
2018-05-24T22:35:21.663Z,82.59
2018-05-24T22:37:49.108Z,82.53
2018-05-24T22:40:16.571Z,82.32
2018-05-24T22:42:43.989Z,82.52
2018-05-24T22:45:11.402Z,82.79
2018-05-24T22:47:38.817Z,83.51
2018-05-24T22:50:06.529Z,83.46
2018-05-24T22:52:34.066Z,83.48
2018-05-24T22:55:01.474Z,83.66
2018-05-24T22:57:28.920Z,83.45
2018-05-24T22:59:56.353Z,83.43
2018-05-24T23:02:23.829Z,83.23
2018-05-24T23:04:51.308Z,83.91
2018-05-24T23:07:18.759Z,83.64
2018-05-24T23:09:47.251Z,83.77
2018-05-24T23:12:14.712Z,83.61
2018-05-24T23:14:42.135Z,83.53
2018-05-24T23:17:09.662Z,84.24
2018-05-24T23:19:37.092Z,84.22
2018-05-24T23:22:04.504Z,84.05
2018-05-24T23:24:32.068Z,83.78
2018-05-24T23:26:59.490Z,83.82
2018-05-24T23:29:26.908Z,83.84
2018-05-24T23:31:54.367Z,83.73
2018-05-24T23:34:21.811Z,83.62
2018-05-24T23:36:49.308Z,83.77
2018-05-24T23:39:16.734Z,84.01
2018-05-24T23:41:44.193Z,83.92
2018-05-24T23:44:11.605Z,83.71
2018-05-24T23:46:39.047Z,83.82
2018-05-24T23:49:06.456Z,83.80
2018-05-24T23:51:34.039Z,83.76
2018-05-24T23:54:01.451Z,83.82
2018-05-24T23:56:28.877Z,83.99
2018-05-24T23:58:56.357Z,83.90
